Terminal Aerodrome Forecast
Issued by NWS

Home | Current Version | Previous Version | Graphics & Text | Print | Product List | Glossary On
Versions: 1 2 3 4 5 6 7 8 9 10 11 12 13 14 15 16 17 18 19 20
718
FTUS43 KABR 121121
TAFATY
TAF
KATY 121121Z 1212/1312 24005KT P6SM OVC017
     FM121500 25009KT P6SM BKN020
     FM121800 25010KT P6SM BKN080
     FM130800 29013G20KT P6SM BKN200=

USA.gov is the U.S. government's official web portal to all federal, state and local government web resources and services.